Time;durP1;ratioP1;P1;durP2;ratioP2;P2;SDS_P1;SDS_P2;PMS_P1;PMS_P2;Temp;Humidity;BMP_temperature;BMP_pressure;BME280_temperature;BME280_humidity;BME280_pressure;Samples;Min_cycle;Max_cycle;Signal;HPM_P1;HPM_P2
2023/03/24 00:01:56;;;;;;;19.27;16.45;;;12.40;99.90;;;;;;5158523;27;20050;-69
2023/03/24 00:04:26;;;;;;;16.50;14.75;;;12.40;99.90;;;;;;5158487;27;20039;-69
2023/03/24 00:06:52;;;;;;;17.98;14.55;;;12.40;99.90;;;;;;5159600;27;20332;-69
2023/03/24 00:09:18;;;;;;;17.67;13.95;;;12.40;99.90;;;;;;5162416;27;20415;-69
2023/03/24 00:11:44;;;;;;;18.02;16.13;;;12.30;99.90;;;;;;5162321;27;20094;-69
2023/03/24 00:14:11;;;;;;;20.13;16.00;;;12.40;99.90;;;;;;5162690;27;20037;-69
2023/03/24 00:16:44;;;;;;;16.48;14.90;;;12.50;99.90;;;;;;5162215;27;20111;-70
2023/03/24 00:19:12;;;;;;;17.75;15.63;;;12.50;99.90;;;;;;5162296;27;20424;-69
2023/03/24 00:21:38;;;;;;;17.63;15.93;;;12.40;99.90;;;;;;5162518;27;20053;-69
2023/03/24 00:24:06;;;;;;;20.02;16.00;;;12.40;99.90;;;;;;5162485;27;20424;-69
2023/03/24 00:26:33;;;;;;;20.20;15.80;;;12.40;99.90;;;;;;5162434;27;20327;-69
2023/03/24 00:28:58;;;;;;;18.10;15.98;;;12.40;99.90;;;;;;5143978;27;20051;-69
2023/03/24 00:31:24;;;;;;;18.13;16.23;;;12.30;99.90;;;;;;5144014;27;20038;-69
2023/03/24 00:33:50;;;;;;;22.08;16.90;;;12.40;99.90;;;;;;5162321;27;20077;-69
2023/03/24 00:36:19;;;;;;;19.35;15.45;;;12.30;99.90;;;;;;5143714;27;20033;-69
2023/03/24 00:38:46;;;;;;;20.85;16.88;;;12.30;99.90;;;;;;5161931;27;20109;-69
2023/03/24 00:41:12;;;;;;;18.15;16.08;;;12.40;99.90;;;;;;5161824;27;20428;-69
2023/03/24 00:43:38;;;;;;;17.23;15.68;;;12.30;99.90;;;;;;5162096;27;20046;-69
2023/03/24 00:46:12;;;;;;;20.25;16.48;;;12.30;99.90;;;;;;5143328;27;20070;-69
2023/03/24 00:48:40;;;;;;;19.30;16.73;;;12.40;99.90;;;;;;5162011;27;20039;-69
2023/03/24 00:51:09;;;;;;;18.30;16.33;;;12.40;99.90;;;;;;5143040;27;20381;-69
2023/03/24 00:53:36;;;;;;;19.05;17.15;;;12.30;99.90;;;;;;5161895;27;20388;-69
2023/03/24 00:56:02;;;;;;;18.95;17.25;;;12.30;99.90;;;;;;5161859;27;20067;-69
2023/03/24 00:58:28;;;;;;;21.40;19.27;;;12.30;99.90;;;;;;5143532;27;20038;-69
2023/03/24 01:00:57;;;;;;;21.58;19.35;;;12.30;99.90;;;;;;5143431;27;20050;-69
2023/03/24 01:03:26;;;;;;;23.02;20.70;;;12.30;99.90;;;;;;5143051;27;20335;-69
2023/03/24 01:06:01;;;;;;;21.50;19.75;;;12.40;99.90;;;;;;5161701;27;20042;-69
2023/03/24 01:08:27;;;;;;;21.27;19.45;;;12.40;99.90;;;;;;5143307;27;20380;-69
2023/03/24 01:10:53;;;;;;;20.58;17.65;;;12.50;99.90;;;;;;5142940;27;20047;-69
2023/03/24 01:13:24;;;;;;;22.77;18.45;;;12.40;99.90;;;;;;5161519;27;20041;-69
2023/03/24 01:15:50;;;;;;;20.92;17.92;;;12.30;99.90;;;;;;5160759;27;20301;-69
2023/03/24 01:18:17;;;;;;;20.60;18.67;;;12.20;99.90;;;;;;5160681;27;20042;-69
2023/03/24 01:20:45;;;;;;;21.00;18.88;;;12.20;99.90;;;;;;5161372;27;20034;-69
2023/03/24 01:23:13;;;;;;;19.67;18.02;;;12.20;99.90;;;;;;5161037;27;20045;-69
2023/03/24 01:25:41;;;;;;;21.08;19.33;;;12.20;99.90;;;;;;5161275;27;20076;-69
2023/03/24 01:28:07;;;;;;;22.73;20.70;;;12.20;99.90;;;;;;5160952;27;20500;-70
2023/03/24 01:30:32;;;;;;;20.98;19.17;;;12.20;99.90;;;;;;5160874;27;20031;-69
2023/03/24 01:32:58;;;;;;;22.40;20.20;;;12.20;99.90;;;;;;5160813;27;20487;-69
2023/03/24 01:35:25;;;;;;;23.52;21.40;;;12.10;99.90;;;;;;5161071;27;20035;-70
2023/03/24 01:37:51;;;;;;;22.30;20.20;;;12.30;99.90;;;;;;5161088;27;20110;-69
2023/03/24 01:40:29;;;;;;;22.67;20.80;;;12.20;99.90;;;;;;5160733;27;20098;-69
2023/03/24 01:42:56;;;;;;;23.30;21.05;;;12.30;99.90;;;;;;5142425;27;20043;-69
2023/03/24 01:45:50;;;;;;;22.52;20.50;;;12.30;99.90;;;;;;5160453;27;20031;-70
2023/03/24 01:48:48;;;;;;;21.25;19.45;;;12.20;99.90;;;;;;5160906;27;20452;-69
2023/03/24 01:51:40;;;;;;;22.58;20.45;;;12.20;99.90;;;;;;5137919;27;20335;-69
2023/03/24 01:54:29;;;;;;;22.00;20.30;;;12.20;99.90;;;;;;5146731;27;20072;-68
2023/03/24 01:57:10;;;;;;;22.70;20.75;;;12.30;99.90;;;;;;5160743;27;20054;-69
2023/03/24 01:59:43;;;;;;;22.77;20.60;;;12.30;99.90;;;;;;5142157;27;20127;-69
2023/03/24 02:02:12;;;;;;;22.27;20.45;;;12.30;99.90;;;;;;5160311;27;20442;-69
2023/03/24 02:04:49;;;;;;;22.73;20.90;;;12.30;99.90;;;;;;5160542;27;20121;-69
2023/03/24 02:07:31;;;;;;;23.33;21.33;;;12.30;99.90;;;;;;5141903;27;20524;-69
2023/03/24 02:09:58;;;;;;;22.25;20.35;;;12.30;99.90;;;;;;5160476;27;20046;-69
2023/03/24 02:12:23;;;;;;;23.48;21.67;;;12.30;99.90;;;;;;5159987;27;20358;-69
2023/03/24 02:14:50;;;;;;;23.23;21.50;;;12.30;99.90;;;;;;5160083;27;20087;-69
2023/03/24 02:17:16;;;;;;;24.13;22.10;;;12.30;99.90;;;;;;5141575;27;20057;-69
2023/03/24 02:20:04;;;;;;;25.50;23.38;;;12.40;99.90;;;;;;5160187;27;20045;-69
2023/03/24 02:22:42;;;;;;;26.17;24.08;;;12.40;99.90;;;;;;5160380;27;20051;-69
2023/03/24 02:25:46;;;;;;;25.63;23.50;;;12.30;99.90;;;;;;5159830;27;20480;-69
2023/03/24 02:28:18;;;;;;;26.52;24.50;;;12.10;99.90;;;;;;5160111;27;20038;-69
2023/03/24 02:31:29;;;;;;;25.70;23.65;;;12.20;99.90;;;;;;5158492;27;20418;-69
2023/03/24 02:34:14;;;;;;;26.50;24.25;;;12.20;99.90;;;;;;5159864;27;20027;-69
2023/03/24 02:36:58;;;;;;;26.70;24.70;;;12.20;99.90;;;;;;5159893;27;20042;-69
2023/03/24 02:39:36;;;;;;;26.58;24.67;;;12.30;99.90;;;;;;5141238;27;20130;-69
2023/03/24 02:42:40;;;;;;;27.13;25.17;;;12.40;99.90;;;;;;5141253;27;20432;-69
2023/03/24 02:45:18;;;;;;;26.65;24.75;;;12.30;99.90;;;;;;5159729;27;20309;-69
2023/03/24 02:47:47;;;;;;;27.42;25.55;;;12.40;99.90;;;;;;5159730;27;20035;-69
2023/03/24 02:50:27;;;;;;;28.75;26.33;;;12.50;99.90;;;;;;5159081;27;20491;-69
2023/03/24 02:53:08;;;;;;;27.42;25.33;;;12.40;99.90;;;;;;5159555;27;20039;-69
2023/03/24 02:55:49;;;;;;;26.90;25.10;;;12.30;99.90;;;;;;5159516;27;20070;-69
2023/03/24 02:58:22;;;;;;;28.17;25.98;;;12.40;99.90;;;;;;5159273;27;20046;-69
2023/03/24 03:01:10;;;;;;;27.70;25.60;;;12.50;99.90;;;;;;5159384;27;20039;-69
2023/03/24 03:04:01;;;;;;;27.25;25.40;;;12.40;99.90;;;;;;5159350;27;20113;-69
2023/03/24 03:06:32;;;;;;;27.52;25.48;;;12.40;99.90;;;;;;5159386;27;20122;-69
2023/03/24 03:09:03;;;;;;;28.33;26.17;;;12.60;99.90;;;;;;5141058;27;20038;-69
2023/03/24 03:11:29;;;;;;;30.70;28.08;;;12.60;99.90;;;;;;5158872;27;20073;-69
2023/03/24 03:14:21;;;;;;;28.52;26.73;;;12.60;99.90;;;;;;5159109;27;20062;-69
2023/03/24 03:17:13;;;;;;;28.05;26.15;;;12.60;99.90;;;;;;5135423;27;20042;-69
2023/03/24 03:19:49;;;;;;;28.80;26.80;;;12.50;99.90;;;;;;5159132;27;20034;-69
2023/03/24 03:22:19;;;;;;;31.13;28.80;;;12.60;99.90;;;;;;5158874;27;20126;-69
2023/03/24 03:24:51;;;;;;;31.77;29.13;;;12.60;99.90;;;;;;5159048;27;20069;-69
2023/03/24 03:27:21;;;;;;;33.42;31.02;;;12.70;99.90;;;;;;5158700;27;20057;-69
2023/03/24 03:29:53;;;;;;;33.33;30.38;;;12.70;99.90;;;;;;5158966;27;20046;-69
2023/03/24 03:32:27;;;;;;;33.50;30.45;;;12.60;99.90;;;;;;5158591;27;20038;-69
2023/03/24 03:35:21;;;;;;;32.72;29.90;;;12.60;99.90;;;;;;5158897;27;20087;-69
2023/03/24 03:38:07;;;;;;;29.42;27.50;;;12.50;99.90;;;;;;5158874;27;20036;-69
2023/03/24 03:40:49;;;;;;;28.77;26.53;;;12.50;99.90;;;;;;5158865;27;20327;-69
2023/03/24 03:43:15;;;;;;;25.00;23.50;;;12.40;99.90;;;;;;5158458;27;20428;-69
2023/03/24 03:45:41;;;;;;;26.13;24.42;;;12.20;99.90;;;;;;5158026;27;20047;-69
2023/03/24 03:48:06;;;;;;;25.23;23.52;;;12.10;99.90;;;;;;5158638;27;20361;-70
2023/03/24 03:50:33;;;;;;;20.05;18.60;;;12.10;99.90;;;;;;5158148;27;20051;-69
2023/03/24 03:53:00;;;;;;;18.42;17.10;;;12.00;99.90;;;;;;5158253;27;20042;-69
2023/03/24 03:55:26;;;;;;;17.23;15.70;;;11.80;99.90;;;;;;5158573;27;20099;-69
2023/03/24 03:57:53;;;;;;;17.85;16.27;;;11.80;99.90;;;;;;5158565;27;20042;-69
2023/03/24 04:00:21;;;;;;;13.93;12.63;;;11.70;99.90;;;;;;5158522;27;20417;-69
2023/03/24 04:03:24;;;;;;;14.13;12.82;;;11.60;99.90;;;;;;5158208;27;20450;-69
2023/03/24 04:06:02;;;;;;;14.90;13.40;;;11.50;99.90;;;;;;5158243;27;20046;-69
2023/03/24 04:09:03;;;;;;;12.18;11.07;;;11.40;99.90;;;;;;5158460;27;20027;-69
2023/03/24 04:11:35;;;;;;;19.30;11.68;;;11.40;99.90;;;;;;5158373;27;20042;-69
2023/03/24 04:14:06;;;;;;;12.13;10.93;;;11.30;99.90;;;;;;5158115;27;20052;-69
2023/03/24 04:16:46;;;;;;;12.48;9.32;;;11.30;99.90;;;;;;5157948;27;20041;-70
2023/03/24 04:19:12;;;;;;;12.00;9.80;;;11.30;99.90;;;;;;5158649;27;20039;-69
2023/03/24 04:22:04;;;;;;;12.82;8.43;;;11.20;99.90;;;;;;5158325;27;20125;-70
2023/03/24 04:24:50;;;;;;;8.10;7.00;;;11.20;99.90;;;;;;5158309;27;20327;-69
2023/03/24 04:27:26;;;;;;;11.20;5.75;;;11.20;99.90;;;;;;5158361;27;20163;-69
2023/03/24 04:30:13;;;;;;;12.38;6.97;;;11.10;99.90;;;;;;5157945;27;20447;-70
2023/03/24 04:32:57;;;;;;;;;;;11.10;99.90;;;;;;5158805;27;20097;-69
2023/03/24 04:35:32;;;;;;;13.65;7.13;;;11.00;99.90;;;;;;5158213;27;19963;-69
2023/03/24 04:38:08;;;;;;;10.57;5.60;;;11.00;99.90;;;;;;5158183;27;20134;-69
2023/03/24 04:40:40;;;;;;;11.00;5.72;;;10.90;99.90;;;;;;5158691;27;20039;-70
2023/03/24 04:43:12;;;;;;;10.90;5.03;;;10.90;99.90;;;;;;5157953;27;20416;-69
2023/03/24 04:45:38;;;;;;;12.85;5.60;;;10.90;99.90;;;;;;5157890;27;20038;-70
2023/03/24 04:48:07;;;;;;;10.68;4.68;;;10.80;99.90;;;;;;5158046;27;20066;-70
2023/03/24 04:50:42;;;;;;;10.60;4.90;;;10.70;99.90;;;;;;5157756;27;20071;-69
2023/03/24 04:53:09;;;;;;;8.73;4.57;;;10.70;99.90;;;;;;5158068;27;20042;-69
2023/03/24 04:55:57;;;;;;;10.43;3.88;;;10.70;99.90;;;;;;5143440;27;20034;-70
2023/03/24 04:58:23;;;;;;;9.82;5.68;;;10.60;99.90;;;;;;5161890;27;20091;-70
2023/03/24 05:00:50;;;;;;;10.82;5.57;;;10.60;99.90;;;;;;5161837;27;20047;-70
2023/03/24 05:03:16;;;;;;;13.98;4.50;;;10.60;99.90;;;;;;5161743;27;20066;-71
2023/03/24 05:05:44;;;;;;;11.00;4.45;;;10.60;99.90;;;;;;5161739;27;20046;-70
2023/03/24 05:08:10;;;;;;;13.43;5.53;;;10.50;99.90;;;;;;5161338;27;20043;-69
2023/03/24 05:10:37;;;;;;;20.70;4.80;;;10.50;99.90;;;;;;5161559;27;20075;-69
2023/03/24 05:13:03;;;;;;;18.55;5.38;;;10.50;99.90;;;;;;5161563;27;20034;-70
2023/03/24 05:15:29;;;;;;;16.38;4.32;;;10.50;99.90;;;;;;5161094;27;20365;-70
2023/03/24 05:17:56;;;;;;;18.00;5.97;;;10.40;99.90;;;;;;5161521;27;20324;-70
2023/03/24 05:20:22;;;;;;;14.68;4.90;;;10.40;99.90;;;;;;5161106;27;20035;-70
2023/03/24 05:22:48;;;;;;;17.63;5.20;;;10.50;99.90;;;;;;5161368;27;20039;-70
2023/03/24 05:25:14;;;;;;;17.48;5.53;;;10.50;99.90;;;;;;5161324;27;20041;-70
2023/03/24 05:27:41;;;;;;;12.85;5.55;;;10.50;99.90;;;;;;5162088;27;20027;-69
2023/03/24 05:30:07;;;;;;;19.30;6.00;;;10.50;99.90;;;;;;5161235;27;20427;-70
2023/03/24 05:32:33;;;;;;;16.63;6.10;;;10.60;99.90;;;;;;5161137;27;20169;-69
2023/03/24 05:34:58;;;;;;;24.63;7.10;;;10.60;99.90;;;;;;5160887;27;20443;-70
2023/03/24 05:37:24;;;;;;;16.15;6.18;;;10.60;99.90;;;;;;5161072;27;20027;-70
2023/03/24 05:39:50;;;;;;;21.55;7.82;;;10.60;99.90;;;;;;5161045;27;20034;-70
2023/03/24 05:42:16;;;;;;;18.35;7.97;;;10.60;99.90;;;;;;5160805;27;20035;-70
2023/03/24 05:44:42;;;;;;;18.13;6.32;;;10.70;99.90;;;;;;5160793;27;20061;-70
2023/03/24 05:47:08;;;;;;;21.10;6.93;;;10.70;99.90;;;;;;5160035;27;20053;-70
2023/03/24 05:49:35;;;;;;;17.00;7.30;;;10.50;99.90;;;;;;5160209;27;20039;-69
2023/03/24 05:52:01;;;;;;;20.02;7.40;;;10.50;99.90;;;;;;5161435;27;20049;-70
2023/03/24 05:54:27;;;;;;;20.30;6.78;;;10.50;99.90;;;;;;5141935;27;20043;-69
2023/03/24 05:56:52;;;;;;;22.42;6.22;;;10.60;99.90;;;;;;5160595;27;20034;-69
2023/03/24 05:59:18;;;;;;;24.92;6.80;;;10.70;99.90;;;;;;5160386;27;20110;-70
2023/03/24 06:01:43;;;;;;;19.05;7.03;;;10.60;99.90;;;;;;5160645;27;20038;-70
2023/03/24 06:04:10;;;;;;;17.00;6.25;;;10.60;99.90;;;;;;5160395;27;20079;-70
2023/03/24 06:06:37;;;;;;;24.38;6.78;;;10.60;99.90;;;;;;5160474;27;20030;-70
2023/03/24 06:09:03;;;;;;;15.98;6.40;;;10.60;99.90;;;;;;5160157;27;20034;-70
2023/03/24 06:11:30;;;;;;;14.18;6.00;;;10.60;99.90;;;;;;5160310;27;20053;-70
2023/03/24 06:13:59;;;;;;;14.35;6.55;;;10.60;99.90;;;;;;5160369;27;20038;-70
2023/03/24 06:16:26;;;;;;;23.83;6.72;;;10.50;99.90;;;;;;5159920;27;20319;-70
2023/03/24 06:18:53;;;;;;;18.95;6.68;;;10.60;99.90;;;;;;5160302;27;20384;-70
2023/03/24 06:21:19;;;;;;;20.48;6.47;;;10.50;99.90;;;;;;5160230;27;20343;-70
2023/03/24 06:23:46;;;;;;;15.52;5.55;;;10.50;99.90;;;;;;5141601;27;20053;-70
2023/03/24 06:26:13;;;;;;;18.02;5.70;;;10.50;99.90;;;;;;5160132;27;20041;-70
2023/03/24 06:28:40;;;;;;;19.50;5.85;;;10.40;99.90;;;;;;5159826;27;20035;-69
2023/03/24 06:31:18;;;;;;;22.83;5.93;;;10.40;99.90;;;;;;5159714;27;20134;-70
2023/03/24 06:33:45;;;;;;;15.55;6.18;;;10.40;99.90;;;;;;5159770;27;20062;-70
2023/03/24 06:36:11;;;;;;;16.88;6.07;;;10.40;99.90;;;;;;5159971;27;20095;-70
2023/03/24 06:38:37;;;;;;;20.88;7.90;;;10.50;99.90;;;;;;5159916;27;20309;-69
2023/03/24 06:41:04;;;;;;;23.98;6.43;;;10.50;99.90;;;;;;5159878;27;20045;-70
2023/03/24 06:43:30;;;;;;;22.83;7.50;;;10.50;99.90;;;;;;5159784;27;20039;-70
2023/03/24 06:45:56;;;;;;;21.55;6.90;;;10.60;99.90;;;;;;5159044;27;20427;-70
2023/03/24 06:48:22;;;;;;;24.90;6.72;;;10.60;99.90;;;;;;5141122;27;20047;-69
2023/03/24 06:50:50;;;;;;;16.30;6.30;;;10.50;99.90;;;;;;5159259;27;20058;-70
2023/03/24 06:53:16;;;;;;;24.10;6.78;;;10.50;99.90;;;;;;5141674;27;20077;-70
2023/03/24 06:55:41;;;;;;;18.60;6.47;;;10.50;99.90;;;;;;5159260;27;20132;-70
2023/03/24 06:58:07;;;;;;;17.85;5.15;;;10.50;99.90;;;;;;5159531;27;20034;-70
2023/03/24 07:00:33;;;;;;;19.52;5.93;;;10.50;99.90;;;;;;5159455;27;20415;-70
2023/03/24 07:03:01;;;;;;;18.92;5.53;;;10.50;99.90;;;;;;5159438;27;20049;-70
2023/03/24 07:05:27;;;;;;;28.73;6.30;;;10.50;99.90;;;;;;5159419;27;20057;-66
2023/03/24 07:07:53;;;;;;;20.20;6.30;;;10.60;99.90;;;;;;5140805;27;20055;-67
2023/03/24 07:10:20;;;;;;;19.35;4.80;;;10.70;99.90;;;;;;5158960;27;20034;-66
2023/03/24 07:12:47;;;;;;;24.50;5.88;;;10.70;99.90;;;;;;5158944;27;20046;-66
2023/03/24 07:15:13;;;;;;;24.05;5.30;;;10.80;99.90;;;;;;5159181;27;20035;-66
2023/03/24 07:17:41;;;;;;;27.92;5.63;;;10.70;99.90;;;;;;5157780;27;20088;-66
2023/03/24 07:20:07;;;;;;;21.08;5.55;;;10.70;99.90;;;;;;5159122;27;20103;-66
2023/03/24 07:22:37;;;;;;;16.90;5.40;;;10.70;99.90;;;;;;5159081;27;20043;-66
2023/03/24 07:25:05;;;;;;;21.30;4.70;;;10.80;99.90;;;;;;5159010;27;20114;-65
2023/03/24 07:27:33;;;;;;;24.88;6.07;;;10.80;99.90;;;;;;5158952;27;20035;-67
2023/03/24 07:30:00;;;;;;;25.20;5.35;;;10.80;99.90;;;;;;5158973;27;20042;-66
2023/03/24 07:32:38;;;;;;;21.17;4.32;;;10.70;99.90;;;;;;5158820;27;20042;-66
2023/03/24 07:35:11;;;;;;;18.80;4.38;;;10.70;99.90;;;;;;5158614;27;20407;-66
2023/03/24 07:37:40;;;;;;;22.75;4.82;;;10.70;99.90;;;;;;5158816;27;20038;-66
2023/03/24 07:40:10;;;;;;;21.13;4.82;;;10.80;99.90;;;;;;5158782;27;20113;-67
2023/03/24 07:42:40;;;;;;;21.63;4.85;;;10.80;99.90;;;;;;5158785;27;20046;-66
2023/03/24 07:45:10;;;;;;;24.55;5.30;;;10.80;99.90;;;;;;5158722;27;20095;-66
2023/03/24 07:47:37;;;;;;;19.08;4.88;;;10.80;99.90;;;;;;5158331;27;20080;-66
2023/03/24 07:50:08;;;;;;;23.20;5.20;;;10.70;99.90;;;;;;5158387;27;20065;-66
2023/03/24 07:52:36;;;;;;;26.50;5.07;;;10.70;99.90;;;;;;5158288;27;20423;-66
2023/03/24 07:55:01;;;;;;;25.85;5.05;;;10.70;99.90;;;;;;5158608;27;20034;-66
2023/03/24 07:57:27;;;;;;;29.02;4.68;;;10.70;99.90;;;;;;5158530;27;20041;-66
2023/03/24 07:59:53;;;;;;;33.47;4.93;;;10.80;99.90;;;;;;5158505;27;20109;-66
2023/03/24 08:02:19;;;;;;;15.95;3.60;;;10.70;99.90;;;;;;5158201;27;20039;-66
2023/03/24 08:04:45;;;;;;;19.63;4.60;;;10.70;99.90;;;;;;5158227;27;20488;-66
2023/03/24 08:07:14;;;;;;;19.55;4.75;;;10.80;99.90;;;;;;5158181;27;20042;-66
2023/03/24 08:09:40;;;;;;;21.92;3.90;;;10.80;99.90;;;;;;5158450;27;20078;-65
2023/03/24 08:12:06;;;;;;;23.40;4.53;;;10.80;99.90;;;;;;5158110;27;20074;-66
2023/03/24 08:14:31;;;;;;;30.15;3.72;;;10.80;99.90;;;;;;5158426;27;20083;-66
2023/03/24 08:16:57;;;;;;;24.30;5.07;;;10.80;99.90;;;;;;5158088;27;20070;-66
2023/03/24 08:19:23;;;;;;;24.77;4.15;;;11.00;99.90;;;;;;5157868;27;20464;-67
2023/03/24 08:21:48;;;;;;;27.55;5.32;;;11.10;99.90;;;;;;5140127;27;20509;-67
2023/03/24 08:24:14;;;;;;;24.67;4.40;;;11.00;99.90;;;;;;5158310;27;20070;-67
2023/03/24 08:26:41;;;;;;;32.70;4.22;;;11.10;99.90;;;;;;5158299;27;20043;-66
2023/03/24 08:29:07;;;;;;;31.77;4.80;;;11.20;99.90;;;;;;5161338;27;20030;-67
2023/03/24 08:31:35;;;;;;;27.42;4.43;;;11.20;99.90;;;;;;5162102;27;20042;-66
2023/03/24 08:34:01;;;;;;;28.23;4.35;;;11.10;99.90;;;;;;5162337;27;20043;-66
2023/03/24 08:36:27;;;;;;;25.08;3.75;;;11.10;99.90;;;;;;5144008;27;20084;-66
2023/03/24 08:38:54;;;;;;;23.17;4.10;;;11.30;99.90;;;;;;5144010;27;20535;-65
2023/03/24 08:41:21;;;;;;;26.45;4.22;;;11.40;99.90;;;;;;5162229;27;20345;-66
2023/03/24 08:43:47;;;;;;;25.42;3.67;;;11.30;99.90;;;;;;5161831;27;20335;-67
2023/03/24 08:46:14;;;;;;;24.25;3.60;;;11.20;99.90;;;;;;5161408;27;20046;-66
2023/03/24 08:48:40;;;;;;;25.42;4.25;;;11.40;99.90;;;;;;5161745;27;20443;-66
2023/03/24 08:51:16;;;;;;;31.88;3.88;;;11.50;99.90;;;;;;5143434;27;20123;-66
2023/03/24 08:53:42;;;;;;;21.00;3.95;;;11.70;99.90;;;;;;5143662;27;20434;-67
2023/03/24 08:56:09;;;;;;;29.27;4.28;;;11.80;99.90;;;;;;5161879;27;20292;-66
2023/03/24 08:58:35;;;;;;;28.83;4.40;;;12.00;99.90;;;;;;5161877;27;20030;-66
2023/03/24 09:01:01;;;;;;;24.27;3.55;;;11.90;99.90;;;;;;5161597;27;20449;-66
2023/03/24 09:03:27;;;;;;;22.27;3.35;;;11.80;99.90;;;;;;5161783;27;20121;-66
2023/03/24 09:05:56;;;;;;;22.20;3.83;;;11.40;99.90;;;;;;5161456;27;20118;-66
2023/03/24 09:08:22;;;;;;;21.52;3.65;;;11.20;99.90;;;;;;5161710;27;20030;-66
2023/03/24 09:10:48;;;;;;;23.65;3.40;;;11.10;99.90;;;;;;5143227;27;20384;-67
2023/03/24 09:13:15;;;;;;;17.77;3.05;;;11.30;99.90;;;;;;5143312;27;20039;-66
2023/03/24 09:15:46;;;;;;;18.38;3.00;;;11.50;99.90;;;;;;5161158;27;20046;-68
2023/03/24 09:18:12;;;;;;;20.35;2.65;;;11.60;99.90;;;;;;5161518;27;20037;-72
2023/03/24 09:20:37;;;;;;;21.10;3.88;;;11.60;99.90;;;;;;5125660;27;20038;-68
2023/03/24 09:23:03;;;;;;;22.00;3.85;;;11.70;99.90;;;;;;5161403;27;20417;-70
2023/03/24 09:25:29;;;;;;;26.25;3.92;;;12.00;99.90;;;;;;5161386;27;20038;-72
2023/03/24 09:27:55;;;;;;;23.48;2.92;;;12.40;99.90;;;;;;5161284;27;20438;-67
2023/03/24 09:30:21;;;;;;;29.05;3.28;;;12.40;99.90;;;;;;5161378;27;20054;-67
2023/03/24 09:32:47;;;;;;;19.48;3.50;;;12.40;99.90;;;;;;5142491;27;20058;-67
2023/03/24 09:35:13;;;;;;;21.67;2.70;;;12.60;99.90;;;;;;5161140;27;20066;-66
2023/03/24 09:37:42;;;;;;;19.33;2.85;;;12.90;99.90;;;;;;5161202;27;20053;-66
2023/03/24 09:40:14;;;;;;;26.77;3.60;;;13.20;99.90;;;;;;5141861;27;20046;-66
2023/03/24 09:42:40;;;;;;;16.67;2.78;;;13.30;99.90;;;;;;5161044;27;20118;-66
2023/03/24 09:45:18;;;;;;;22.42;3.15;;;13.30;99.90;;;;;;5160945;27;20085;-66
2023/03/24 09:47:56;;;;;;;21.55;3.17;;;13.30;99.90;;;;;;5160560;27;20114;-66
2023/03/24 09:50:49;;;;;;;21.27;2.80;;;13.00;99.90;;;;;;5160563;27;20054;-66
2023/03/24 09:53:31;;;;;;;21.67;2.72;;;12.80;99.90;;;;;;5160461;27;20051;-66
2023/03/24 09:56:03;;;;;;;19.17;4.03;;;12.40;99.90;;;;;;5160778;27;20039;-66
2023/03/24 09:58:32;;;;;;;21.98;3.60;;;12.20;99.90;;;;;;5160761;27;20073;-66
2023/03/24 10:00:58;;;;;;;19.85;2.58;;;12.10;99.90;;;;;;5160639;27;20042;-65
2023/03/24 10:03:24;;;;;;;17.83;2.58;;;11.90;99.90;;;;;;5160608;27;20364;-65
2023/03/24 10:06:07;;;;;;;16.85;2.45;;;11.80;99.90;;;;;;5142301;27;20444;-65
2023/03/24 10:08:42;;;;;;;20.60;2.85;;;11.90;99.90;;;;;;5160577;27;20039;-66
2023/03/24 10:11:08;;;;;;;18.27;2.70;;;12.00;99.90;;;;;;5160422;27;20067;-65
2023/03/24 10:14:00;;;;;;;15.05;2.40;;;11.80;99.90;;;;;;5160376;27;20046;-71
2023/03/24 10:16:50;;;;;;;22.67;2.95;;;11.70;99.90;;;;;;5160115;27;20034;-66
2023/03/24 10:19:19;;;;;;;15.68;2.63;;;11.70;99.90;;;;;;5160311;27;20049;-65
2023/03/24 10:22:02;;;;;;;15.73;2.70;;;11.70;99.90;;;;;;5159992;27;20050;-66
2023/03/24 10:24:43;;;;;;;17.55;2.45;;;11.80;99.90;;;;;;5160186;27;20050;-67
2023/03/24 10:27:35;;;;;;;17.58;2.47;;;11.90;99.90;;;;;;5160218;27;20099;-66
2023/03/24 10:30:13;;;;;;;17.55;2.70;;;11.80;99.90;;;;;;5160448;27;20060;-66
2023/03/24 10:32:41;;;;;;;20.55;2.65;;;11.90;99.90;;;;;;5160014;27;20041;-67
2023/03/24 10:35:25;;;;;;;11.05;1.48;;;12.00;99.90;;;;;;5159591;27;20427;-71
2023/03/24 10:37:51;;;;;;;20.15;2.72;;;12.00;99.90;;;;;;5160002;27;20031;-67
2023/03/24 10:40:22;;;;;;;18.33;2.47;;;11.90;99.90;;;;;;5159572;27;20046;-72
2023/03/24 10:42:49;;;;;;;15.02;2.33;;;11.80;99.90;;;;;;5159895;27;20065;-73
2023/03/24 10:45:27;;;;;;;22.58;2.80;;;11.80;99.90;;;;;;5159506;27;20075;-69
2023/03/24 10:47:57;;;;;;;18.50;2.25;;;11.80;99.90;;;;;;5159455;27;20038;-71
2023/03/24 10:50:26;;;;;;;18.05;2.22;;;11.70;99.90;;;;;;5159442;27;20047;-73
2023/03/24 10:52:52;;;;;;;13.93;2.55;;;11.70;99.90;;;;;;5140052;27;20438;-71
2023/03/24 10:55:22;;;;;;;16.60;2.40;;;11.90;99.90;;;;;;5159569;27;20043;-68
2023/03/24 10:57:55;;;;;;;19.98;2.67;;;12.10;99.90;;;;;;5140940;27;20050;-67
2023/03/24 11:00:30;;;;;;;16.40;2.78;;;12.40;99.90;;;;;;5159984;27;20031;-67
2023/03/24 11:03:03;;;;;;;20.27;3.00;;;12.20;99.90;;;;;;5159463;27;20056;-67
2023/03/24 11:05:32;;;;;;;19.50;2.65;;;12.30;99.90;;;;;;5159410;27;20039;-67
2023/03/24 11:08:12;;;;;;;15.77;2.33;;;12.30;99.90;;;;;;5159531;27;20047;-67
2023/03/24 11:10:38;;;;;;;17.52;3.58;;;12.30;99.90;;;;;;5159147;27;20101;-68
2023/03/24 11:13:06;;;;;;;20.00;2.65;;;12.50;99.90;;;;;;5159205;27;20070;-67
2023/03/24 11:15:36;;;;;;;23.08;3.00;;;13.00;99.90;;;;;;5159203;27;20035;-68
2023/03/24 11:18:15;;;;;;;21.05;3.47;;;13.50;99.90;;;;;;5158742;27;20082;-70
2023/03/24 11:21:02;;;;;;;12.82;2.33;;;13.70;99.90;;;;;;5159170;27;20039;-69
2023/03/24 11:23:37;;;;;;;14.35;2.42;;;13.70;99.90;;;;;;5159232;27;20086;-68
2023/03/24 11:26:15;;;;;;;17.95;2.50;;;13.40;99.90;;;;;;5158801;27;20109;-68
2023/03/24 11:28:51;;;;;;;14.13;2.10;;;13.10;99.90;;;;;;5123635;27;20038;-73
2023/03/24 11:31:23;;;;;;;16.55;2.17;;;12.80;99.90;;;;;;5140319;27;20100;-67
2023/03/24 11:34:24;;;;;;;15.30;2.40;;;13.00;99.90;;;;;;5158900;27;20043;-67
2023/03/24 11:36:55;;;;;;;14.43;2.35;;;13.50;99.90;;;;;;5156623;27;20510;-67
2023/03/24 11:39:33;;;;;;;21.65;3.25;;;14.30;99.90;;;;;;5158714;27;20039;-68
2023/03/24 11:42:11;;;;;;;17.45;2.72;;;14.80;99.90;;;;;;5158773;27;20046;-67
2023/03/24 11:44:37;;;;;;;11.30;1.85;;;14.50;99.90;;;;;;5158838;27;20049;-67
2023/03/24 11:47:23;;;;;;;16.38;2.55;;;13.80;99.90;;;;;;5140064;27;20038;-73
2023/03/24 11:50:27;;;;;;;16.73;2.80;;;13.80;99.90;;;;;;5158525;27;20047;-68
2023/03/24 11:53:02;;;;;;;15.85;2.03;;;13.80;99.90;;;;;;5158544;27;20061;-68
2023/03/24 11:55:43;;;;;;;20.10;2.25;;;13.70;99.90;;;;;;5158681;27;20125;-67
2023/03/24 11:58:24;;;;;;;13.52;2.08;;;13.70;99.90;;;;;;5158613;27;20046;-67
2023/03/24 12:01:19;;;;;;;13.48;1.70;;;13.80;99.90;;;;;;5158563;27;20039;-67
2023/03/24 12:03:52;;;;;;;12.93;1.88;;;13.60;99.90;;;;;;5155674;27;20047;-68
2023/03/24 12:06:27;;;;;;;15.73;1.80;;;13.60;99.90;;;;;;5158507;27;20089;-68
2023/03/24 12:09:23;;;;;;;9.13;1.67;;;13.90;99.90;;;;;;5158553;27;20054;-68
2023/03/24 12:11:48;;;;;;;14.32;1.98;;;14.10;99.90;;;;;;5158355;27;20046;-68
2023/03/24 12:14:43;;;;;;;15.85;2.78;;;14.10;99.90;;;;;;5158362;27;20038;-68
2023/03/24 12:17:34;;;;;;;16.92;2.08;;;14.00;99.90;;;;;;5158080;27;20327;-68
2023/03/24 12:20:22;;;;;;;13.68;1.80;;;13.60;99.90;;;;;;5158260;27;20109;-69
2023/03/24 12:23:11;;;;;;;10.15;1.63;;;13.70;99.90;;;;;;5158465;27;20427;-69
2023/03/24 12:25:49;;;;;;;14.80;1.90;;;13.80;99.90;;;;;;5158389;27;20035;-69
2023/03/24 12:28:28;;;;;;;17.55;2.13;;;13.90;99.90;;;;;;5158127;27;20133;-67
2023/03/24 12:30:54;;;;;;;17.00;2.50;;;14.60;99.90;;;;;;5158285;27;20042;-69
2023/03/24 12:33:51;;;;;;;11.57;2.03;;;14.60;99.90;;;;;;5157926;27;20442;-70
2023/03/24 12:36:57;;;;;;;16.38;2.38;;;14.50;99.90;;;;;;5158159;27;20052;-69
2023/03/24 12:39:37;;;;;;;17.42;2.30;;;14.50;99.90;;;;;;5157954;27;20324;-69
2023/03/24 12:42:09;;;;;;;12.20;1.83;;;15.00;99.90;;;;;;5158187;27;20053;-68
2023/03/24 12:45:01;;;;;;;14.30;2.20;;;15.00;99.90;;;;;;5158154;27;20043;-74
2023/03/24 12:47:32;;;;;;;20.55;2.88;;;15.20;99.90;;;;;;5142803;27;20487;-74
2023/03/24 12:50:30;;;;;;;12.13;1.80;;;15.40;99.90;;;;;;5139391;27;20435;-72
2023/03/24 12:53:12;;;;;;;17.17;2.22;;;15.70;99.90;;;;;;5139811;27;20121;-69
2023/03/24 12:56:02;;;;;;;15.55;2.40;;;15.60;99.90;;;;;;5158091;27;20081;-70
2023/03/24 12:58:40;;;;;;;12.18;2.70;;;15.20;99.90;;;;;;5157985;27;20039;-70
2023/03/24 13:01:15;;;;;;;14.55;2.10;;;15.10;99.90;;;;;;5139710;27;20046;-71